createdAt,value
2017-12-28T00:00:04.659Z,99049.48
2017-12-28T00:02:30.898Z,99051.84
2017-12-28T00:04:57.287Z,99043.98
2017-12-28T00:07:23.728Z,99039.59
2017-12-28T00:09:50.220Z,99033.28
2017-12-28T00:12:16.586Z,99037.29
2017-12-28T00:14:43.012Z,99033.39
2017-12-28T00:17:09.391Z,99030.84
2017-12-28T00:19:35.795Z,99027.17
2017-12-28T00:22:02.215Z,99027.02
2017-12-28T00:24:28.643Z,99020.52
2017-12-28T00:26:55.067Z,99014.08
2017-12-28T00:29:21.539Z,99015.51
2017-12-28T00:31:47.916Z,99015.04
2017-12-28T00:34:14.252Z,99014.90
2017-12-28T00:36:40.676Z,99017.35
2017-12-28T00:39:07.008Z,99016.91
2017-12-28T00:41:33.563Z,99016.59
2017-12-28T00:44:00.058Z,99015.30
2017-12-28T00:46:26.440Z,99021.40
2017-12-28T00:48:52.840Z,99027.17
2017-12-28T00:51:19.247Z,99025.69
2017-12-28T00:53:45.583Z,99032.45
2017-12-28T00:56:11.982Z,99025.15
2017-12-28T00:58:38.391Z,99028.63
2017-12-28T01:01:04.795Z,99024.13
2017-12-28T01:03:31.311Z,99016.64
2017-12-28T01:05:57.705Z,99007.33
2017-12-28T01:08:24.044Z,99008.53
2017-12-28T01:10:50.455Z,99007.30
2017-12-28T01:13:16.856Z,99007.56
2017-12-28T01:15:43.255Z,99000.52
2017-12-28T01:18:09.663Z,99000.07
2017-12-28T01:20:36.063Z,98999.41
2017-12-28T01:23:02.416Z,98999.22
2017-12-28T01:25:28.819Z,98994.61
2017-12-28T01:27:55.227Z,98993.50
2017-12-28T01:30:21.631Z,98999.07
2017-12-28T01:32:48.036Z,98990.80
2017-12-28T01:35:14.484Z,99000.70
2017-12-28T01:37:40.892Z,98989.92
2017-12-28T01:40:07.292Z,98987.09
2017-12-28T01:42:33.723Z,98988.36
2017-12-28T01:45:00.183Z,98988.37
2017-12-28T01:47:26.512Z,98979.32
2017-12-28T01:49:53.335Z,98979.77
2017-12-28T01:52:19.738Z,98978.47
2017-12-28T01:54:46.119Z,98979.32
2017-12-28T01:57:12.539Z,98973.56
2017-12-28T01:59:38.956Z,98970.50
2017-12-28T02:02:05.366Z,98970.72
2017-12-28T02:04:31.860Z,98966.48
2017-12-28T02:06:58.279Z,98964.02
2017-12-28T02:09:24.763Z,98962.27
2017-12-28T02:11:51.210Z,98949.95
2017-12-28T02:14:17.629Z,98945.11
2017-12-28T02:16:43.985Z,98938.47
2017-12-28T02:19:10.468Z,98939.70
2017-12-28T02:21:36.947Z,98943.52
2017-12-28T02:24:03.331Z,98947.14
2017-12-28T02:26:29.702Z,98940.89
2017-12-28T02:28:56.071Z,98940.10
2017-12-28T02:31:22.459Z,98943.05
2017-12-28T02:33:48.952Z,98940.79
2017-12-28T02:36:15.291Z,98935.65
2017-12-28T02:38:41.668Z,98939.80
2017-12-28T02:41:08.051Z,98928.94
2017-12-28T02:43:34.528Z,98924.60
2017-12-28T02:46:00.892Z,98914.41
2017-12-28T02:48:27.292Z,98913.69
2017-12-28T02:50:53.675Z,98904.28
2017-12-28T02:53:20.060Z,98890.73
2017-12-28T02:55:46.492Z,98887.03
2017-12-28T02:58:12.843Z,98895.69
2017-12-28T03:00:39.276Z,98890.14
2017-12-28T03:03:05.639Z,98896.18
2017-12-28T03:05:31.992Z,98895.58
2017-12-28T03:07:58.370Z,98891.48
2017-12-28T03:10:24.831Z,98885.80
2017-12-28T03:12:51.200Z,98887.52
2017-12-28T03:15:17.573Z,98874.14
2017-12-28T03:17:44.087Z,98872.15
2017-12-28T03:20:10.483Z,98863.81
2017-12-28T03:22:36.843Z,98864.66
2017-12-28T03:25:03.263Z,98860.91
2017-12-28T03:27:29.655Z,98858.23
2017-12-28T03:29:56.043Z,98866.13
2017-12-28T03:32:22.516Z,98858.27
2017-12-28T03:34:48.900Z,98857.50
2017-12-28T03:37:15.323Z,98854.09
2017-12-28T03:39:41.810Z,98859.25
2017-12-28T03:42:08.179Z,98862.19
2017-12-28T03:44:34.587Z,98860.98
2017-12-28T03:47:01.023Z,98864.38
2017-12-28T03:49:27.387Z,98862.15
2017-12-28T03:51:53.836Z,98866.53
2017-12-28T03:54:20.271Z,98865.13
2017-12-28T03:56:46.643Z,98859.92
2017-12-28T03:59:12.983Z,98861.41
2017-12-28T04:01:39.512Z,98859.30
2017-12-28T04:04:05.851Z,98854.55
2017-12-28T04:06:32.172Z,98853.89
2017-12-28T04:08:58.554Z,98848.85
2017-12-28T04:11:24.893Z,98843.88
2017-12-28T04:13:51.291Z,98844.83
2017-12-28T04:16:17.695Z,98852.56
2017-12-28T04:18:44.036Z,98852.09
2017-12-28T04:21:10.371Z,98844.92
2017-12-28T04:23:36.827Z,98854.39
2017-12-28T04:26:03.219Z,98857.12
2017-12-28T04:28:29.582Z,98861.24
2017-12-28T04:30:56.063Z,98862.31
2017-12-28T04:33:22.480Z,98863.00
2017-12-28T04:35:48.812Z,98866.24
2017-12-28T04:38:15.236Z,98856.59
2017-12-28T04:40:41.624Z,98853.11
2017-12-28T04:43:08.056Z,98857.48
2017-12-28T04:45:34.535Z,98854.89
2017-12-28T04:48:00.926Z,98845.56
2017-12-28T04:50:27.268Z,98854.69
2017-12-28T04:52:53.690Z,98846.27
2017-12-28T04:55:20.084Z,98843.60
2017-12-28T04:57:46.416Z,98834.18
2017-12-28T05:00:12.888Z,98831.62
2017-12-28T05:02:39.299Z,98825.52
2017-12-28T05:05:05.668Z,98838.11
2017-12-28T05:07:32.087Z,98839.16
2017-12-28T05:09:58.459Z,98847.76
2017-12-28T05:12:24.867Z,98846.05
2017-12-28T05:14:51.299Z,98853.67
2017-12-28T05:17:17.703Z,98860.09
2017-12-28T05:19:44.087Z,98845.09
2017-12-28T05:22:10.478Z,98850.78
2017-12-28T05:24:36.807Z,98841.86
2017-12-28T05:27:03.210Z,98833.92
2017-12-28T05:29:29.615Z,98834.39
2017-12-28T05:31:56.040Z,98835.02
2017-12-28T05:34:22.391Z,98838.78
2017-12-28T05:36:48.784Z,98842.41
2017-12-28T05:39:15.239Z,98839.76
2017-12-28T05:41:41.651Z,98844.33
2017-12-28T05:44:08.141Z,98852.08
2017-12-28T05:46:34.535Z,98846.51
2017-12-28T05:49:01.001Z,98839.38
2017-12-28T05:51:34.480Z,98845.03
2017-12-28T05:54:00.947Z,98843.84
2017-12-28T05:56:27.315Z,98842.34
2017-12-28T05:58:53.724Z,98838.53
2017-12-28T06:01:20.168Z,98828.25
2017-12-28T06:03:46.634Z,98828.92
2017-12-28T06:06:13.043Z,98827.05
2017-12-28T06:08:39.482Z,98828.16
2017-12-28T06:11:05.943Z,98826.85
2017-12-28T06:13:32.367Z,98828.91
2017-12-28T06:15:58.767Z,98828.70
2017-12-28T06:18:25.167Z,98829.16
2017-12-28T06:20:51.735Z,98816.36
2017-12-28T06:23:18.125Z,98824.14
2017-12-28T06:25:44.461Z,98813.44
2017-12-28T06:28:10.922Z,98805.28
2017-12-28T06:30:37.403Z,98812.95
2017-12-28T06:33:03.879Z,98810.75
2017-12-28T06:35:30.392Z,98812.30
2017-12-28T06:37:56.808Z,98813.36
2017-12-28T06:40:23.324Z,98817.95
2017-12-28T06:42:49.899Z,98825.13
2017-12-28T06:45:16.411Z,98825.77
2017-12-28T06:47:42.896Z,98833.91
2017-12-28T06:50:09.459Z,98841.84
2017-12-28T06:52:35.979Z,98841.95
2017-12-28T06:55:02.443Z,98822.83
2017-12-28T06:57:28.912Z,98849.59
2017-12-28T06:59:55.443Z,98815.56
2017-12-28T07:02:21.860Z,98815.56
2017-12-28T07:04:48.283Z,98812.19
2017-12-28T07:07:14.795Z,98799.70
2017-12-28T07:09:42.196Z,98804.34
2017-12-28T07:12:08.700Z,98810.49
2017-12-28T07:14:35.093Z,98808.78
2017-12-28T07:17:01.443Z,98807.61
2017-12-28T07:19:27.875Z,98806.40
2017-12-28T07:21:54.321Z,98803.95
2017-12-28T07:24:20.732Z,98804.74
2017-12-28T07:26:47.133Z,98802.10
2017-12-28T07:29:13.588Z,98808.94
2017-12-28T07:31:39.955Z,98813.77
2017-12-28T07:34:06.415Z,98820.48
2017-12-28T07:36:32.787Z,98809.86
2017-12-28T07:38:59.178Z,98807.88
2017-12-28T07:41:25.607Z,98808.71
2017-12-28T07:43:51.985Z,98800.52
2017-12-28T07:46:18.351Z,98799.16
2017-12-28T07:48:44.851Z,98792.79
2017-12-28T07:51:11.422Z,98791.77
2017-12-28T07:53:44.779Z,98784.27
2017-12-28T07:56:11.172Z,98780.28
2017-12-28T07:58:37.532Z,98775.28
2017-12-28T08:01:03.851Z,98769.39
2017-12-28T08:03:30.417Z,98770.70
2017-12-28T08:05:56.784Z,98782.53
2017-12-28T08:08:23.159Z,98774.65
2017-12-28T08:10:50.495Z,98779.25
2017-12-28T08:13:16.858Z,98782.73
2017-12-28T08:15:43.511Z,98769.88
2017-12-28T08:18:09.882Z,98772.70
2017-12-28T08:20:36.267Z,98763.77
2017-12-28T08:23:02.718Z,98753.73
2017-12-28T08:25:29.184Z,98752.06
2017-12-28T08:27:55.851Z,98757.84
2017-12-28T08:30:22.236Z,98755.35
2017-12-28T08:32:48.742Z,98744.16
2017-12-28T08:35:15.179Z,98738.86
2017-12-28T08:37:41.569Z,98741.70
2017-12-28T08:40:08.075Z,98743.83
2017-12-28T08:42:34.607Z,98739.34
2017-12-28T08:45:01.039Z,98725.38
2017-12-28T08:47:27.547Z,98729.97
2017-12-28T08:49:53.963Z,98718.98
2017-12-28T08:52:20.494Z,98716.78
2017-12-28T08:54:47.171Z,98712.58
2017-12-28T08:57:13.721Z,98709.12
2017-12-28T08:59:40.175Z,98700.06
2017-12-28T09:02:06.769Z,98693.77
2017-12-28T09:04:33.119Z,98691.17
2017-12-28T09:06:59.559Z,98688.09
2017-12-28T09:09:25.963Z,98697.11
2017-12-28T09:11:52.303Z,98700.16
2017-12-28T09:14:18.682Z,98699.73
2017-12-28T09:16:45.136Z,98688.55
2017-12-28T09:19:11.546Z,98673.96
2017-12-28T09:21:38.021Z,98675.47
2017-12-28T09:24:04.540Z,98668.77
2017-12-28T09:26:30.871Z,98670.70
2017-12-28T09:28:57.254Z,98657.32
2017-12-28T09:31:23.627Z,98654.54
2017-12-28T09:33:50.050Z,98650.59
2017-12-28T09:36:16.517Z,98643.87
2017-12-28T09:38:42.973Z,98651.33
2017-12-28T09:41:09.371Z,98645.45
2017-12-28T09:43:35.927Z,98632.22
2017-12-28T09:46:02.371Z,98643.81
2017-12-28T09:48:28.808Z,98637.44
2017-12-28T09:50:55.171Z,98630.45
2017-12-28T09:53:21.625Z,98622.66
2017-12-28T09:55:48.020Z,98615.01
2017-12-28T09:58:14.397Z,98596.95
2017-12-28T10:00:40.811Z,98603.09
2017-12-28T10:03:07.312Z,98587.80
2017-12-28T10:05:33.691Z,98586.27
2017-12-28T10:08:00.131Z,98596.16
2017-12-28T10:10:26.647Z,98570.10
2017-12-28T10:12:53.040Z,98560.92
2017-12-28T10:15:19.475Z,98547.63
2017-12-28T10:17:45.907Z,98547.19
2017-12-28T10:20:12.303Z,98555.78
2017-12-28T10:22:38.711Z,98546.61
2017-12-28T10:25:05.056Z,98550.24
2017-12-28T10:40:36.992Z,98547.53
2017-12-28T10:43:03.339Z,98527.90
2017-12-28T10:45:29.779Z,98541.99
2017-12-28T10:47:56.271Z,98539.41
2017-12-28T10:50:22.696Z,98529.22
2017-12-28T10:52:49.068Z,98526.73
2017-12-28T10:55:15.607Z,98530.97
2017-12-28T10:57:42.075Z,98535.28
2017-12-28T11:00:08.471Z,98538.78
2017-12-28T11:02:34.907Z,98543.30
2017-12-28T11:05:01.368Z,98524.10
2017-12-28T11:07:27.987Z,98531.76
2017-12-28T11:09:54.492Z,98532.67
2017-12-28T11:12:20.920Z,98527.48
2017-12-28T11:14:47.381Z,98521.72
2017-12-28T11:17:13.824Z,98520.66
2017-12-28T11:19:40.234Z,98513.53
2017-12-28T11:22:06.755Z,98511.00
2017-12-28T11:24:33.456Z,98518.47
2017-12-28T11:26:59.847Z,98520.77
2017-12-28T11:29:26.295Z,98509.67
2017-12-28T11:31:52.788Z,98502.16
2017-12-28T11:34:19.156Z,98489.75
2017-12-28T11:36:45.568Z,98488.05
2017-12-28T11:39:12.010Z,98488.38
2017-12-28T11:41:38.395Z,98502.33
2017-12-28T11:44:04.791Z,98490.75
2017-12-28T11:46:31.195Z,98490.75
2017-12-28T11:48:57.605Z,98488.22
2017-12-28T11:51:24.068Z,98485.73
2017-12-28T11:53:50.555Z,98480.52
2017-12-28T11:56:19.001Z,98480.73
2017-12-28T11:58:49.348Z,98488.69
2017-12-28T12:01:18.635Z,98480.33
2017-12-28T12:03:45.052Z,98495.03
2017-12-28T12:06:11.499Z,98488.71
2017-12-28T12:08:43.936Z,98492.89
2017-12-28T12:11:10.347Z,98496.56
2017-12-28T12:13:36.763Z,98491.57
2017-12-28T12:16:03.195Z,98496.73
2017-12-28T12:18:29.643Z,98501.08
2017-12-28T12:20:56.053Z,98504.56
2017-12-28T12:23:22.476Z,98506.80
2017-12-28T12:25:48.862Z,98512.72
2017-12-28T12:28:15.215Z,98505.76
2017-12-28T12:30:41.672Z,98495.17
2017-12-28T12:33:08.017Z,98494.38
2017-12-28T12:35:34.436Z,98497.82
2017-12-28T12:38:00.843Z,98493.78
2017-12-28T12:40:27.310Z,98485.92
2017-12-28T12:42:53.687Z,98488.81
2017-12-28T12:45:20.095Z,98499.52
2017-12-28T12:47:46.553Z,98497.69
2017-12-28T12:50:13.009Z,98508.53
2017-12-28T12:52:39.546Z,98511.71
2017-12-28T12:55:05.876Z,98507.70
2017-12-28T12:57:32.403Z,98517.31
2017-12-28T12:59:58.798Z,98515.48
2017-12-28T13:02:25.203Z,98525.98
2017-12-28T13:04:51.748Z,98519.06
2017-12-28T13:07:18.135Z,98517.37
2017-12-28T13:09:44.648Z,98515.92
2017-12-28T13:12:11.031Z,98521.78
2017-12-28T13:14:37.535Z,98519.95
2017-12-28T13:17:04.016Z,98521.48
2017-12-28T13:19:30.411Z,98513.16
2017-12-28T13:21:56.835Z,98513.45
2017-12-28T13:24:23.203Z,98512.70
2017-12-28T13:26:49.615Z,98511.70
2017-12-28T13:29:16.000Z,98512.47
2017-12-28T13:31:42.418Z,98498.11
2017-12-28T13:34:08.880Z,98500.54
2017-12-28T13:36:35.384Z,98491.97
2017-12-28T13:39:01.767Z,98496.42
2017-12-28T13:41:28.154Z,98494.63
2017-12-28T13:43:54.600Z,98490.75
2017-12-28T13:46:21.048Z,98485.70
2017-12-28T13:48:47.423Z,98491.06
2017-12-28T13:51:13.863Z,98486.30
2017-12-28T13:53:40.404Z,98477.55
2017-12-28T13:56:06.792Z,98473.97
2017-12-28T13:58:33.255Z,98471.63
2017-12-28T14:00:59.659Z,98464.05
2017-12-28T14:03:26.047Z,98465.06
2017-12-28T14:05:52.477Z,98464.52
2017-12-28T14:08:18.891Z,98472.68
2017-12-28T14:10:45.233Z,98476.16
2017-12-28T14:13:11.923Z,98479.47
2017-12-28T14:15:38.327Z,98482.19
2017-12-28T14:18:04.724Z,98479.94
2017-12-28T14:20:31.111Z,98493.16
2017-12-28T14:22:57.495Z,98488.75
2017-12-28T14:25:23.923Z,98497.52
2017-12-28T14:27:50.391Z,98493.70
2017-12-28T14:30:16.843Z,98502.16
2017-12-28T14:32:43.291Z,98513.19
2017-12-28T14:35:09.730Z,98514.03
2017-12-28T14:37:36.114Z,98507.41
2017-12-28T14:40:02.463Z,98512.97
2017-12-28T14:42:28.854Z,98511.94
2017-12-28T14:44:55.395Z,98529.97
2017-12-28T14:47:21.824Z,98521.58
2017-12-28T14:49:48.255Z,98506.02
2017-12-28T14:52:14.713Z,98505.56
2017-12-28T14:54:41.146Z,98491.28
2017-12-28T14:57:07.556Z,98495.91
2017-12-28T14:59:33.939Z,98487.97
2017-12-28T15:02:00.312Z,98490.38
2017-12-28T15:04:26.675Z,98490.50
2017-12-28T15:06:53.095Z,98494.83
2017-12-28T15:09:19.651Z,98497.74
2017-12-28T15:11:46.090Z,98493.44
2017-12-28T15:14:12.442Z,98512.17
2017-12-28T15:16:38.815Z,98515.06
2017-12-28T15:19:05.265Z,98516.59
2017-12-28T15:21:31.655Z,98519.02
2017-12-28T15:23:58.043Z,98518.68
2017-12-28T15:26:24.447Z,98520.09
2017-12-28T15:28:50.810Z,98521.25
2017-12-28T15:31:17.338Z,98519.60
2017-12-28T15:33:43.799Z,98518.62
2017-12-28T15:36:10.187Z,98520.08
2017-12-28T15:38:36.551Z,98529.77
2017-12-28T15:41:02.987Z,98538.52
2017-12-28T15:43:29.382Z,98541.53
2017-12-28T15:45:55.867Z,98545.38
2017-12-28T15:48:22.411Z,98544.02
2017-12-28T15:50:48.788Z,98549.16
2017-12-28T15:53:15.136Z,98545.69
2017-12-28T15:55:41.628Z,98553.94
2017-12-28T15:58:08.013Z,98551.22
2017-12-28T16:00:34.573Z,98550.42
2017-12-28T16:03:01.086Z,98551.09
2017-12-28T16:05:27.476Z,98553.12
2017-12-28T16:07:53.855Z,98550.80
2017-12-28T16:10:22.351Z,98543.39
2017-12-28T16:12:48.736Z,98542.56
2017-12-28T16:15:15.189Z,98532.92
2017-12-28T16:17:41.656Z,98532.19
2017-12-28T16:20:08.079Z,98531.82
2017-12-28T16:22:34.539Z,98528.88
2017-12-28T16:25:00.967Z,98533.41
2017-12-28T16:27:27.388Z,98522.94
2017-12-28T16:29:53.716Z,98515.42
2017-12-28T16:32:20.159Z,98521.81
2017-12-28T16:34:46.484Z,98505.90
2017-12-28T16:37:12.911Z,98508.58
2017-12-28T16:39:39.404Z,98511.68
2017-12-28T16:42:05.780Z,98514.15
2017-12-28T16:44:32.219Z,98518.23
2017-12-28T16:46:58.647Z,98511.68
2017-12-28T16:49:25.000Z,98504.06
2017-12-28T16:51:51.387Z,98506.77
2017-12-28T16:54:17.779Z,98517.93
2017-12-28T16:56:44.144Z,98517.71
2017-12-28T16:59:10.604Z,98514.63
2017-12-28T17:01:37.039Z,98514.05
2017-12-28T17:04:03.427Z,98508.50
2017-12-28T17:06:29.765Z,98502.42
2017-12-28T17:08:56.266Z,98508.50
2017-12-28T17:11:22.747Z,98501.90
2017-12-28T17:13:49.073Z,98506.02
2017-12-28T17:16:15.483Z,98506.91
2017-12-28T17:18:41.927Z,98504.66
2017-12-28T17:21:08.336Z,98511.53
2017-12-28T17:23:34.806Z,98511.92
2017-12-28T17:26:01.199Z,98512.80
2017-12-28T17:28:27.547Z,98516.20
2017-12-28T17:30:53.964Z,98509.28
2017-12-28T17:33:20.294Z,98506.06
2017-12-28T17:35:46.747Z,98499.91
2017-12-28T17:38:13.155Z,98496.48
2017-12-28T17:40:39.499Z,98498.22
2017-12-28T17:43:05.952Z,98485.92
2017-12-28T17:45:32.438Z,98480.92
2017-12-28T17:47:58.924Z,98487.24
2017-12-28T17:50:25.308Z,98478.64
2017-12-28T17:52:51.770Z,98480.39
2017-12-28T17:55:18.288Z,98468.77
2017-12-28T17:57:44.644Z,98474.47
2017-12-28T18:00:11.031Z,98465.92
2017-12-28T18:02:37.400Z,98466.94
2017-12-28T18:05:03.771Z,98467.69
2017-12-28T18:07:30.253Z,98466.80
2017-12-28T18:09:56.668Z,98467.47
2017-12-28T18:12:23.181Z,98466.42
2017-12-28T18:14:49.665Z,98467.70
2017-12-28T18:17:16.135Z,98469.79
2017-12-28T18:19:42.555Z,98472.33
2017-12-28T18:22:09.848Z,98472.63
2017-12-28T18:24:36.281Z,98465.97
2017-12-28T18:27:02.712Z,98462.61
2017-12-28T18:29:29.099Z,98463.13
2017-12-28T18:31:55.479Z,98459.72
2017-12-28T18:34:21.954Z,98464.94
2017-12-28T18:36:48.399Z,98452.25
2017-12-28T18:39:14.756Z,98442.78
2017-12-28T18:41:41.163Z,98456.53
2017-12-28T18:44:07.588Z,98448.81
2017-12-28T18:46:33.968Z,98443.20
2017-12-28T18:49:01.060Z,98431.74
2017-12-28T18:51:28.499Z,98428.64
2017-12-28T18:53:55.619Z,98424.57
2017-12-28T18:56:21.996Z,98423.89
2017-12-28T18:58:48.423Z,98424.64
2017-12-28T19:01:14.820Z,98417.97
2017-12-28T19:03:41.160Z,98419.67
2017-12-28T19:06:07.655Z,98399.98
2017-12-28T19:08:34.079Z,98402.66
2017-12-28T19:11:00.440Z,98399.77
2017-12-28T19:13:26.816Z,98388.99
2017-12-28T19:15:53.318Z,98380.20
2017-12-28T19:18:19.664Z,98377.95
2017-12-28T19:20:46.166Z,98383.85
2017-12-28T19:23:12.547Z,98382.24
2017-12-28T19:25:38.947Z,98378.49
2017-12-28T19:28:05.300Z,98375.83
2017-12-28T19:30:31.660Z,98377.48
2017-12-28T19:32:58.021Z,98378.97
2017-12-28T19:35:24.393Z,98379.46
2017-12-28T19:37:50.775Z,98384.18
2017-12-28T19:40:17.281Z,98383.71
2017-12-28T19:42:43.720Z,98382.95
2017-12-28T19:45:10.096Z,98381.39
2017-12-28T19:47:36.503Z,98388.73
2017-12-28T19:50:03.165Z,98396.80
2017-12-28T19:52:29.573Z,98405.21
2017-12-28T19:54:56.029Z,98398.03
2017-12-28T19:57:22.442Z,98409.45
2017-12-28T19:59:48.957Z,98406.82
2017-12-28T20:02:15.443Z,98402.28
2017-12-28T20:04:41.919Z,98400.45
2017-12-28T20:07:08.263Z,98389.28
2017-12-28T20:09:34.646Z,98385.81
2017-12-28T20:12:01.065Z,98375.11
2017-12-28T20:14:27.637Z,98382.88
2017-12-28T20:16:54.958Z,98391.70
2017-12-28T20:19:21.371Z,98394.34
2017-12-28T20:21:47.747Z,98407.66
2017-12-28T20:24:14.083Z,98404.86
2017-12-28T20:26:40.520Z,98404.69
2017-12-28T20:29:06.939Z,98410.80
2017-12-28T20:31:33.352Z,98401.75
2017-12-28T20:33:59.791Z,98399.52
2017-12-28T20:36:26.170Z,98409.67
2017-12-28T20:38:52.671Z,98421.22
2017-12-28T20:41:19.182Z,98426.91
2017-12-28T20:43:45.639Z,98425.84
2017-12-28T20:46:11.995Z,98436.84
2017-12-28T20:48:38.482Z,98448.05
2017-12-28T20:51:04.917Z,98439.13
2017-12-28T20:53:31.388Z,98455.56
2017-12-28T20:55:57.783Z,98453.69
2017-12-28T20:58:24.163Z,98446.47
2017-12-28T21:00:50.548Z,98447.70
2017-12-28T21:03:17.060Z,98437.63
2017-12-28T21:05:43.404Z,98437.94
2017-12-28T21:08:09.859Z,98451.62
2017-12-28T21:10:36.278Z,98453.56
2017-12-28T21:13:02.630Z,98458.50
2017-12-28T21:15:29.022Z,98473.39
2017-12-28T21:17:55.399Z,98473.39
2017-12-28T21:20:21.781Z,98468.30
2017-12-28T21:22:48.231Z,98469.05
2017-12-28T21:25:14.886Z,98457.51
2017-12-28T21:27:41.314Z,98462.11
2017-12-28T21:30:07.707Z,98465.08
2017-12-28T21:32:34.135Z,98459.80
2017-12-28T21:35:00.502Z,98467.11
2017-12-28T21:37:26.878Z,98460.73
2017-12-28T21:39:53.277Z,98468.52
2017-12-28T21:42:19.642Z,98464.30
2017-12-28T21:44:46.016Z,98472.94
2017-12-28T21:47:14.294Z,98478.37
2017-12-28T21:49:40.683Z,98481.17
2017-12-28T21:52:07.083Z,98483.89
2017-12-28T21:54:33.531Z,98494.33
2017-12-28T21:56:59.987Z,98486.09
2017-12-28T21:59:26.343Z,98481.09
2017-12-28T22:01:52.744Z,98461.13
2017-12-28T22:04:19.075Z,98456.66
2017-12-28T22:06:45.446Z,98463.41
2017-12-28T22:09:18.779Z,98465.59
2017-12-28T22:11:45.239Z,98458.79
2017-12-28T22:14:11.594Z,98448.67
2017-12-28T22:16:37.971Z,98449.64
2017-12-28T22:19:04.330Z,98459.75
2017-12-28T22:21:30.699Z,98452.79
2017-12-28T22:23:57.076Z,98454.44
2017-12-28T22:26:23.452Z,98460.34
2017-12-28T22:28:49.879Z,98453.36
2017-12-28T22:31:16.336Z,98450.13
2017-12-28T22:33:42.739Z,98441.00
2017-12-28T22:36:09.082Z,98440.72
2017-12-28T22:38:35.591Z,98444.76
2017-12-28T22:41:02.034Z,98440.95
2017-12-28T22:43:28.566Z,98442.09
2017-12-28T22:45:55.015Z,98441.36
2017-12-28T22:48:21.423Z,98453.71
2017-12-28T22:50:47.851Z,98430.51
2017-12-28T22:53:14.235Z,98435.13
2017-12-28T22:55:40.655Z,98434.88
2017-12-28T22:58:07.055Z,98437.00
2017-12-28T23:00:40.543Z,98442.00
2017-12-28T23:03:06.891Z,98442.00
2017-12-28T23:05:33.255Z,98441.33
2017-12-28T23:07:59.707Z,98439.50
2017-12-28T23:10:26.105Z,98437.42
2017-12-28T23:12:52.495Z,98429.18
2017-12-28T23:15:18.916Z,98434.27
2017-12-28T23:17:45.308Z,98424.51
2017-12-28T23:20:11.704Z,98415.64
2017-12-28T23:22:38.092Z,98419.73
2017-12-28T23:25:04.483Z,98419.00
2017-12-28T23:27:30.804Z,98429.15
2017-12-28T23:29:57.193Z,98438.94
2017-12-28T23:32:23.571Z,98427.14
2017-12-28T23:34:49.883Z,98431.25
2017-12-28T23:37:16.359Z,98432.40
2017-12-28T23:39:42.839Z,98432.88
2017-12-28T23:42:09.277Z,98431.34
2017-12-28T23:44:35.711Z,98437.36
2017-12-28T23:47:02.015Z,98433.17
2017-12-28T23:49:28.407Z,98439.41
2017-12-28T23:51:54.896Z,98440.32
2017-12-28T23:54:21.268Z,98441.52
2017-12-28T23:56:47.751Z,98444.73
2017-12-28T23:59:14.184Z,98442.67
